KHAE

Hannibal Regional Airport

Hannibal, Missouri, USA
METAR KHAE 191155Z AUTO 18009KT 10SM CLR 04/M02 A2986 RMK AO2
Observed Flight Rules
Dec-19 @ 11:55 UTC (24 minutes ago) Visual Flight Rules
Wind Visibility Clouds
180° at 9 knots 10 miles
  • Clear skies
Temperatures Readings
Current 4°C / 39°F
Dewpoint -2°C / 28°F
Humidity 65%
Altimeter 29.86" Hg
Pressure 1011 hPa
Elevation 234
METAR KHAE 191155Z AUTO 18009KT 10SM CLR 04/M02 A2986 RMK AO2
Observed Flight Rules
Dec-19 @ 11:55 UTC
(24 minutes ago)
VFR
Wind Visibility
180° at 9 knots 10 miles
Clouds
  • Clear skies
Temperature Dewpoint
4°C / 39°F -2°C / 28°F
Humidity Altimeter Pressure
65% 29.86" Hg 1011 hPa